createdAt,value
2023-10-20T00:00:54.834Z,43.14
2023-10-20T00:01:58.740Z,43.17
2023-10-20T00:03:02.633Z,43.15
2023-10-20T00:04:06.718Z,43.24
2023-10-20T00:05:10.911Z,43.22
2023-10-20T00:06:14.734Z,43.15
2023-10-20T00:07:18.590Z,43.24
2023-10-20T00:08:22.322Z,43.23
2023-10-20T00:09:27.747Z,43.21
2023-10-20T00:10:32.338Z,43.25
2023-10-20T00:11:36.348Z,43.22
2023-10-20T00:12:40.357Z,43.22
2023-10-20T00:13:44.115Z,43.28
2023-10-20T00:14:47.901Z,43.31
2023-10-20T00:15:51.723Z,43.15
2023-10-20T00:16:55.604Z,43.40
2023-10-20T00:17:59.463Z,43.34
2023-10-20T00:19:03.231Z,43.45
2023-10-20T00:20:07.601Z,43.41
2023-10-20T00:21:11.455Z,43.41
2023-10-20T00:22:15.120Z,43.44
2023-10-20T00:23:18.934Z,43.41
2023-10-20T00:24:22.685Z,43.42
2023-10-20T00:25:28.192Z,43.42
2023-10-20T00:26:32.070Z,43.52
2023-10-20T00:27:35.927Z,43.53
2023-10-20T00:28:39.687Z,43.56
2023-10-20T00:29:43.388Z,43.58
2023-10-20T00:30:54.683Z,43.59
2023-10-20T00:31:58.413Z,43.53
2023-10-20T00:33:02.295Z,43.71
2023-10-20T00:34:06.328Z,43.71
2023-10-20T00:35:11.005Z,43.66
2023-10-20T00:36:14.946Z,43.66
2023-10-20T00:37:18.678Z,43.72
2023-10-20T00:38:22.475Z,43.73
2023-10-20T00:39:26.335Z,43.52
2023-10-20T00:40:31.765Z,43.67
2023-10-20T00:41:35.610Z,43.71
2023-10-20T00:42:39.997Z,43.65
2023-10-20T00:43:43.711Z,43.78
2023-10-20T00:44:47.516Z,43.72
2023-10-20T00:45:51.457Z,43.67
2023-10-20T00:46:55.178Z,43.71
2023-10-20T00:47:59.318Z,43.70
2023-10-20T00:49:04.718Z,43.81
2023-10-20T00:50:10.230Z,43.80
2023-10-20T00:51:14.206Z,43.87
2023-10-20T00:52:18.293Z,43.90
2023-10-20T00:53:22.412Z,44.02
2023-10-20T00:54:26.172Z,44.08
2023-10-20T00:55:32.193Z,43.97
2023-10-20T00:56:36.085Z,44.06
2023-10-20T00:57:40.457Z,44.05
2023-10-20T00:58:44.339Z,44.08
2023-10-20T00:59:48.076Z,44.09
2023-10-20T01:00:52.070Z,44.12
2023-10-20T01:01:55.873Z,44.12
2023-10-20T01:02:59.865Z,44.17
2023-10-20T01:04:04.154Z,44.09
2023-10-20T01:05:08.505Z,43.93
2023-10-20T01:06:12.503Z,43.90
2023-10-20T01:07:16.733Z,43.89
2023-10-20T01:08:20.694Z,43.97
2023-10-20T01:09:28.071Z,44.00
2023-10-20T01:10:33.588Z,44.04
2023-10-20T01:11:37.460Z,44.03
2023-10-20T01:12:41.401Z,44.10
2023-10-20T01:13:45.142Z,44.14
2023-10-20T01:14:48.963Z,44.20
2023-10-20T01:15:53.357Z,44.10
2023-10-20T01:16:57.134Z,44.27
2023-10-20T01:18:00.912Z,44.34
2023-10-20T01:19:04.824Z,44.38
2023-10-20T01:20:09.749Z,44.43
2023-10-20T01:21:13.585Z,44.48
2023-10-20T01:22:17.341Z,44.47
2023-10-20T01:23:21.236Z,44.55
2023-10-20T01:24:26.796Z,44.51
2023-10-20T01:25:30.690Z,44.48
2023-10-20T01:26:34.494Z,44.27
2023-10-20T01:27:38.290Z,44.39
2023-10-20T01:28:42.035Z,44.45
2023-10-20T01:29:45.828Z,44.44
2023-10-20T01:30:50.040Z,44.44
2023-10-20T01:31:54.021Z,44.49
2023-10-20T01:32:57.928Z,44.49
2023-10-20T01:34:01.820Z,44.51
2023-10-20T01:35:06.278Z,44.48
2023-10-20T01:36:10.027Z,44.47
2023-10-20T01:37:13.932Z,44.48
2023-10-20T01:38:17.755Z,44.47
2023-10-20T01:39:21.619Z,44.52
2023-10-20T01:40:27.067Z,44.55
2023-10-20T01:41:30.816Z,44.49
2023-10-20T01:42:34.530Z,44.46
2023-10-20T01:43:38.305Z,44.32
2023-10-20T01:44:42.090Z,44.50
2023-10-20T01:45:45.886Z,44.62
2023-10-20T01:46:50.041Z,44.69
2023-10-20T01:47:56.162Z,44.78
2023-10-20T01:48:59.999Z,44.89
2023-10-20T01:50:03.835Z,44.88
2023-10-20T01:51:07.605Z,44.86
2023-10-20T01:52:11.587Z,44.89
2023-10-20T01:53:15.370Z,44.96
2023-10-20T01:54:19.227Z,44.96
2023-10-20T01:55:22.978Z,45.09
2023-10-20T01:56:28.499Z,45.19
2023-10-20T01:57:32.209Z,45.28
2023-10-20T01:58:36.027Z,45.27
2023-10-20T01:59:40.015Z,45.32
2023-10-20T02:00:43.852Z,45.33
2023-10-20T02:01:47.646Z,45.14
2023-10-20T02:02:51.679Z,45.38
2023-10-20T02:03:55.718Z,45.39
2023-10-20T02:04:59.619Z,45.40
2023-10-20T02:06:03.395Z,45.49
2023-10-20T02:07:07.115Z,45.45
2023-10-20T02:08:10.942Z,45.34
2023-10-20T02:09:14.772Z,45.33
2023-10-20T02:10:18.681Z,45.26
2023-10-20T02:11:22.639Z,45.17
2023-10-20T02:12:28.971Z,45.37
2023-10-20T02:13:32.675Z,45.39
2023-10-20T02:14:36.670Z,45.34
2023-10-20T02:15:40.436Z,45.46
2023-10-20T02:16:44.447Z,45.50
2023-10-20T02:17:48.154Z,45.51
2023-10-20T02:18:51.944Z,45.50
2023-10-20T02:19:55.588Z,45.43
2023-10-20T02:20:59.913Z,45.40
2023-10-20T02:22:03.701Z,45.33
2023-10-20T02:23:07.543Z,45.28
2023-10-20T02:24:11.398Z,45.12
2023-10-20T02:25:15.420Z,45.15
2023-10-20T02:26:19.447Z,45.10
2023-10-20T02:27:23.248Z,45.14
2023-10-20T02:28:28.824Z,45.26
2023-10-20T02:29:32.596Z,45.29
2023-10-20T02:30:36.525Z,45.37
2023-10-20T02:31:40.227Z,45.43
2023-10-20T02:32:44.337Z,45.33
2023-10-20T02:33:48.410Z,45.48
2023-10-20T02:34:52.197Z,45.54
2023-10-20T02:35:57.507Z,45.45
2023-10-20T02:37:01.247Z,45.39
2023-10-20T02:38:05.214Z,45.40
2023-10-20T02:39:08.997Z,45.41
2023-10-20T02:40:13.375Z,45.27
2023-10-20T02:41:17.232Z,45.30
2023-10-20T02:42:21.047Z,45.26
2023-10-20T02:43:25.514Z,45.24
2023-10-20T02:44:31.047Z,45.23
2023-10-20T02:45:34.837Z,45.25
2023-10-20T02:46:38.552Z,45.21
2023-10-20T02:47:42.402Z,45.23
2023-10-20T02:48:46.265Z,45.25
2023-10-20T02:49:49.984Z,45.20
2023-10-20T02:50:53.772Z,45.22
2023-10-20T02:51:57.523Z,45.24
2023-10-20T02:53:01.440Z,45.27
2023-10-20T02:54:05.427Z,45.37
2023-10-20T02:55:10.001Z,45.41
2023-10-20T02:56:15.050Z,45.49
2023-10-20T02:57:18.762Z,45.64
2023-10-20T02:58:22.519Z,45.64
2023-10-20T02:59:26.448Z,45.66
2023-10-20T03:00:31.863Z,45.69
2023-10-20T03:01:35.636Z,45.66
2023-10-20T03:02:39.478Z,45.73
2023-10-20T03:03:43.852Z,45.49
2023-10-20T03:04:47.884Z,45.72
2023-10-20T03:05:51.625Z,45.74
2023-10-20T03:06:55.357Z,45.73
2023-10-20T03:08:00.031Z,45.77
2023-10-20T03:09:03.816Z,45.83
2023-10-20T03:10:08.568Z,45.85
2023-10-20T03:11:12.416Z,45.87
2023-10-20T03:12:16.219Z,45.74
2023-10-20T03:13:19.904Z,45.84
2023-10-20T03:14:23.749Z,45.73
2023-10-20T03:15:27.638Z,45.92
2023-10-20T03:16:33.141Z,45.96
2023-10-20T03:17:36.974Z,45.98
2023-10-20T03:18:41.998Z,46.00
2023-10-20T03:19:46.431Z,46.08
2023-10-20T03:20:50.184Z,46.10
2023-10-20T03:21:53.936Z,46.06
2023-10-20T03:22:57.843Z,45.96
2023-10-20T03:24:01.548Z,45.90
2023-10-20T03:25:05.659Z,45.86
2023-10-20T03:26:13.347Z,45.87
2023-10-20T03:27:17.308Z,45.84
2023-10-20T03:28:21.165Z,45.82
2023-10-20T03:29:24.996Z,45.83
2023-10-20T03:30:28.807Z,45.84
2023-10-20T03:31:34.250Z,45.81
2023-10-20T03:32:38.095Z,45.74
2023-10-20T03:33:42.060Z,45.63
2023-10-20T03:34:45.736Z,45.67
2023-10-20T03:35:49.450Z,45.49
2023-10-20T03:36:53.477Z,45.75
2023-10-20T03:37:57.217Z,45.83
2023-10-20T03:39:00.937Z,45.77
2023-10-20T03:40:04.917Z,45.76
2023-10-20T03:41:10.277Z,45.75
2023-10-20T03:42:14.150Z,45.83
2023-10-20T03:43:17.992Z,45.94
2023-10-20T03:44:21.945Z,46.02
2023-10-20T03:45:25.787Z,46.07
2023-10-20T03:46:29.644Z,46.20
2023-10-20T03:47:35.048Z,46.15
2023-10-20T03:48:38.860Z,45.98
2023-10-20T03:49:42.601Z,45.97
2023-10-20T03:50:46.682Z,45.91
2023-10-20T03:51:50.636Z,45.90
2023-10-20T03:52:54.388Z,45.80
2023-10-20T03:53:58.317Z,45.93
2023-10-20T03:55:02.024Z,45.93
2023-10-20T03:56:06.102Z,45.98
2023-10-20T03:57:09.856Z,46.03
2023-10-20T03:58:13.629Z,46.10
2023-10-20T03:59:17.491Z,45.97
2023-10-20T04:00:21.447Z,46.01
2023-10-20T04:01:25.258Z,46.06
2023-10-20T04:02:29.106Z,46.17
2023-10-20T04:03:34.709Z,46.22
2023-10-20T04:04:38.601Z,46.31
2023-10-20T04:05:42.414Z,46.40
2023-10-20T04:06:46.409Z,46.43
2023-10-20T04:07:50.208Z,46.40
2023-10-20T04:08:53.947Z,46.59
2023-10-20T04:09:58.038Z,46.66
2023-10-20T04:11:02.337Z,46.75
2023-10-20T04:12:06.348Z,46.71
2023-10-20T04:13:10.146Z,46.78
2023-10-20T04:14:14.027Z,46.79
2023-10-20T04:15:17.937Z,46.80
2023-10-20T04:16:21.719Z,46.72
2023-10-20T04:17:25.648Z,46.57
2023-10-20T04:18:29.546Z,46.77
2023-10-20T04:19:36.269Z,46.74
2023-10-20T04:20:40.436Z,46.73
2023-10-20T04:21:45.426Z,46.74
2023-10-20T04:22:50.216Z,46.85
2023-10-20T04:23:53.991Z,46.88
2023-10-20T04:24:57.722Z,46.91
2023-10-20T04:26:01.492Z,46.97
2023-10-20T04:27:06.164Z,46.93
2023-10-20T04:28:11.021Z,47.00
2023-10-20T04:29:15.164Z,47.00
2023-10-20T04:30:19.882Z,46.95
2023-10-20T04:31:23.661Z,47.01
2023-10-20T04:32:27.547Z,47.00
2023-10-20T04:33:31.402Z,47.02
2023-10-20T04:34:36.902Z,47.01
2023-10-20T04:35:40.680Z,47.04
2023-10-20T04:36:44.536Z,47.10
2023-10-20T04:37:48.267Z,47.00
2023-10-20T04:38:52.353Z,46.92
2023-10-20T04:39:56.622Z,46.99
2023-10-20T04:41:00.355Z,47.05
2023-10-20T04:42:04.129Z,47.09
2023-10-20T04:43:07.990Z,47.10
2023-10-20T04:44:11.783Z,47.16
2023-10-20T04:45:15.572Z,47.21
2023-10-20T04:46:19.363Z,47.26
2023-10-20T04:47:23.134Z,47.25
2023-10-20T04:48:26.925Z,47.23
2023-10-20T04:49:30.819Z,47.28
2023-10-20T04:50:36.295Z,47.30
2023-10-20T04:51:40.112Z,47.15
2023-10-20T04:52:43.864Z,47.11
2023-10-20T04:53:47.829Z,47.08
2023-10-20T04:54:51.622Z,47.42
2023-10-20T04:55:55.352Z,47.33
2023-10-20T04:56:59.076Z,47.04
2023-10-20T04:58:02.860Z,47.03
2023-10-20T04:59:07.077Z,47.04
2023-10-20T05:00:11.790Z,46.99
2023-10-20T05:01:15.555Z,47.12
2023-10-20T05:02:19.421Z,47.25
2023-10-20T05:03:23.332Z,47.34
2023-10-20T05:04:27.148Z,47.33
2023-10-20T05:05:31.039Z,47.44
2023-10-20T05:06:36.420Z,47.42
2023-10-20T05:07:42.843Z,47.45
2023-10-20T05:08:46.630Z,47.47
2023-10-20T05:09:50.401Z,47.45
2023-10-20T05:10:54.697Z,47.50
2023-10-20T05:11:58.419Z,47.53
2023-10-20T05:13:02.063Z,47.58
2023-10-20T05:14:05.881Z,47.47
2023-10-20T05:15:10.765Z,47.54
2023-10-20T05:16:14.705Z,47.56
2023-10-20T05:17:18.495Z,47.57
2023-10-20T05:18:22.235Z,47.57
2023-10-20T05:19:26.040Z,47.57
2023-10-20T05:20:29.829Z,47.58
2023-10-20T05:21:35.286Z,47.57
2023-10-20T05:22:38.966Z,47.54
2023-10-20T05:23:44.528Z,47.44
2023-10-20T05:24:48.219Z,47.43
2023-10-20T05:25:52.211Z,47.43
2023-10-20T05:26:55.968Z,47.44
2023-10-20T05:27:59.731Z,47.53
2023-10-20T05:29:03.477Z,47.55
2023-10-20T05:30:10.284Z,47.57
2023-10-20T05:31:14.336Z,47.57
2023-10-20T05:32:18.142Z,47.53
2023-10-20T05:33:22.095Z,47.58
2023-10-20T05:34:25.804Z,47.59
2023-10-20T05:35:31.196Z,47.47
2023-10-20T05:36:36.578Z,47.60
2023-10-20T05:37:40.291Z,47.65
2023-10-20T05:38:46.582Z,47.63
2023-10-20T05:39:50.399Z,47.59
2023-10-20T05:40:59.322Z,47.68
2023-10-20T05:42:03.729Z,47.67
2023-10-20T05:43:07.676Z,47.63
2023-10-20T05:44:11.555Z,47.69
2023-10-20T05:45:15.616Z,47.72
2023-10-20T05:46:19.525Z,47.79
2023-10-20T05:47:23.385Z,47.87
2023-10-20T05:48:27.259Z,47.92
2023-10-20T05:49:31.634Z,47.98
2023-10-20T05:50:37.043Z,47.96
2023-10-20T05:51:42.476Z,48.07
2023-10-20T05:52:46.194Z,48.06
2023-10-20T05:53:49.909Z,47.95
2023-10-20T05:54:53.634Z,47.83
2023-10-20T05:55:57.377Z,47.78
2023-10-20T05:57:01.062Z,47.70
2023-10-20T05:58:04.907Z,47.75
2023-10-20T05:59:08.699Z,47.79
2023-10-20T06:00:13.307Z,47.72
2023-10-20T06:01:17.060Z,47.56
2023-10-20T06:02:20.823Z,47.48
2023-10-20T06:03:24.616Z,47.42
2023-10-20T06:04:28.462Z,47.41
2023-10-20T06:05:32.274Z,47.47
2023-10-20T06:06:36.088Z,47.49
2023-10-20T06:07:41.449Z,47.58
2023-10-20T06:08:45.293Z,47.62
2023-10-20T06:09:49.144Z,47.68
2023-10-20T06:10:52.863Z,47.62
2023-10-20T06:11:56.628Z,47.83
2023-10-20T06:13:00.365Z,47.77
2023-10-20T06:14:04.092Z,47.81
2023-10-20T06:15:09.094Z,47.85
2023-10-20T06:16:13.513Z,47.89
2023-10-20T06:17:17.519Z,47.92
2023-10-20T06:18:35.071Z,47.97
2023-10-20T06:19:40.183Z,47.78
2023-10-20T06:20:44.005Z,47.83
2023-10-20T06:21:47.793Z,48.00
2023-10-20T06:22:53.140Z,47.99
2023-10-20T06:23:56.975Z,48.12
2023-10-20T06:25:00.768Z,48.14
2023-10-20T06:26:04.441Z,48.21
2023-10-20T06:27:08.142Z,48.21
2023-10-20T06:28:11.953Z,48.22
2023-10-20T06:29:15.711Z,48.19
2023-10-20T06:30:19.449Z,48.15
2023-10-20T06:31:23.202Z,48.17
2023-10-20T06:32:27.092Z,48.21
2023-10-20T06:33:32.414Z,48.25
2023-10-20T06:34:36.127Z,48.25
2023-10-20T06:35:39.885Z,48.18
2023-10-20T06:36:43.687Z,48.24
2023-10-20T06:37:47.379Z,48.22
2023-10-20T06:38:52.793Z,48.15
2023-10-20T06:39:57.271Z,47.99
2023-10-20T06:41:01.038Z,48.02
2023-10-20T06:42:04.873Z,48.07
2023-10-20T06:43:08.642Z,48.11
2023-10-20T06:44:12.449Z,48.22
2023-10-20T06:45:16.426Z,48.26
2023-10-20T06:46:20.278Z,48.29
2023-10-20T06:47:24.116Z,48.20
2023-10-20T06:48:27.951Z,48.33
2023-10-20T06:49:34.089Z,48.21
2023-10-20T06:50:38.036Z,48.52
2023-10-20T06:51:41.809Z,48.55
2023-10-20T06:52:45.551Z,48.44
2023-10-20T06:53:49.356Z,48.41
2023-10-20T06:55:22.507Z,48.40
2023-10-20T06:56:21.149Z,48.40
2023-10-20T06:57:28.637Z,48.43
2023-10-20T06:58:32.446Z,48.48
2023-10-20T06:59:36.191Z,48.49
2023-10-20T07:00:40.018Z,48.53
2023-10-20T07:01:45.150Z,48.62
2023-10-20T07:02:49.569Z,48.64
2023-10-20T07:03:53.498Z,48.61
2023-10-20T07:04:57.256Z,48.59
2023-10-20T07:06:01.752Z,48.54
2023-10-20T07:07:05.644Z,48.61
2023-10-20T07:08:09.659Z,48.58
2023-10-20T07:09:13.745Z,48.58
2023-10-20T07:10:19.256Z,48.56
2023-10-20T07:11:23.045Z,48.63
2023-10-20T07:12:26.820Z,48.61
2023-10-20T07:13:30.708Z,48.62
2023-10-20T07:14:34.671Z,48.64
2023-10-20T07:15:38.674Z,48.58
2023-10-20T07:16:42.552Z,48.66
2023-10-20T07:17:46.395Z,48.65
2023-10-20T07:18:50.190Z,48.56
2023-10-20T07:19:53.884Z,48.58
2023-10-20T07:22:23.201Z,48.48
2023-10-20T07:23:29.579Z,48.43
2023-10-20T07:24:33.864Z,48.54
2023-10-20T07:25:39.409Z,48.56
2023-10-20T07:26:43.244Z,48.55
2023-10-20T07:27:47.057Z,48.49
2023-10-20T07:28:51.018Z,48.36
2023-10-20T07:29:54.984Z,48.27
2023-10-20T07:30:58.731Z,48.21
2023-10-20T07:32:02.427Z,48.10
2023-10-20T07:33:06.871Z,47.98
2023-10-20T07:34:10.850Z,47.92
2023-10-20T07:35:15.021Z,48.00
2023-10-20T07:36:19.179Z,47.93
2023-10-20T07:37:22.949Z,48.16
2023-10-20T07:38:26.689Z,48.24
2023-10-20T07:39:30.479Z,48.21
2023-10-20T07:40:34.502Z,48.20
2023-10-20T07:41:39.950Z,48.27
2023-10-20T07:42:44.409Z,48.21
2023-10-20T07:43:49.962Z,48.26
2023-10-20T07:44:53.798Z,48.29
2023-10-20T07:45:57.594Z,48.14
2023-10-20T07:47:01.451Z,48.17
2023-10-20T07:48:05.694Z,48.14
2023-10-20T07:49:09.462Z,48.07
2023-10-20T07:50:13.255Z,48.07
2023-10-20T07:51:17.043Z,48.04
2023-10-20T07:52:21.000Z,48.10
2023-10-20T07:53:24.736Z,48.14
2023-10-20T07:54:28.410Z,48.17
2023-10-20T07:55:32.221Z,48.18
2023-10-20T07:56:36.000Z,48.26
2023-10-20T07:57:41.416Z,48.29
2023-10-20T07:58:45.161Z,48.30
2023-10-20T07:59:49.196Z,48.28
2023-10-20T08:00:53.049Z,48.33
2023-10-20T08:01:57.037Z,48.33
2023-10-20T08:03:00.972Z,48.31
2023-10-20T08:04:05.053Z,48.29
2023-10-20T08:05:09.803Z,48.34
2023-10-20T08:06:14.183Z,48.27
2023-10-20T08:07:18.403Z,48.30
2023-10-20T08:08:22.299Z,48.38
2023-10-20T08:09:26.136Z,48.36
2023-10-20T08:10:29.874Z,48.30
2023-10-20T08:11:33.752Z,48.30
2023-10-20T08:12:37.516Z,48.23
2023-10-20T08:13:42.852Z,48.20
2023-10-20T08:14:46.652Z,48.06
2023-10-20T08:15:50.544Z,48.12
2023-10-20T08:16:54.700Z,48.18
2023-10-20T08:17:59.833Z,48.21
2023-10-20T08:19:03.707Z,48.18
2023-10-20T08:20:08.941Z,48.12
2023-10-20T08:21:12.623Z,48.21
2023-10-20T08:22:16.384Z,48.20
2023-10-20T08:23:20.153Z,48.08
2023-10-20T08:24:23.952Z,48.08
2023-10-20T08:25:27.711Z,48.15
2023-10-20T08:26:31.446Z,48.13
2023-10-20T08:27:35.273Z,48.16
2023-10-20T08:28:39.031Z,48.19
2023-10-20T08:29:46.755Z,48.18
2023-10-20T08:30:50.560Z,48.05
2023-10-20T08:31:54.309Z,47.95
2023-10-20T08:32:58.179Z,48.04
2023-10-20T08:34:01.925Z,48.03
2023-10-20T08:35:09.408Z,48.13
2023-10-20T08:36:15.625Z,48.17
2023-10-20T08:37:19.479Z,48.19
2023-10-20T08:38:23.598Z,48.19
2023-10-20T08:39:27.371Z,48.14
2023-10-20T08:40:41.902Z,48.13
2023-10-20T08:41:54.585Z,48.14
2023-10-20T08:43:03.658Z,48.14
2023-10-20T08:44:08.061Z,48.05
2023-10-20T08:45:15.512Z,47.94
2023-10-20T08:46:20.311Z,47.95
2023-10-20T08:47:27.139Z,47.76
2023-10-20T08:48:31.084Z,47.95
2023-10-20T08:49:35.505Z,47.95
2023-10-20T08:50:40.949Z,47.92
2023-10-20T08:51:45.521Z,47.93
2023-10-20T08:52:49.891Z,47.89
2023-10-20T08:53:53.603Z,47.91
2023-10-20T08:54:57.625Z,47.82
2023-10-20T08:56:01.416Z,47.79
2023-10-20T08:57:05.205Z,47.83
2023-10-20T08:58:09.045Z,47.84
2023-10-20T08:59:12.809Z,47.82
2023-10-20T09:00:18.667Z,47.88
2023-10-20T09:01:22.388Z,47.64
2023-10-20T09:02:26.259Z,47.80
2023-10-20T09:03:39.399Z,47.85
2023-10-20T09:04:43.385Z,47.84
2023-10-20T09:05:47.157Z,47.82
2023-10-20T09:06:51.207Z,47.83
2023-10-20T09:07:57.034Z,47.82
2023-10-20T09:09:00.882Z,47.82
2023-10-20T09:10:04.791Z,47.81
2023-10-20T09:11:12.511Z,47.82
2023-10-20T09:12:16.606Z,47.81
2023-10-20T09:13:20.338Z,47.79
2023-10-20T09:14:26.918Z,47.56
2023-10-20T09:15:32.365Z,47.74
2023-10-20T09:16:36.762Z,47.67
2023-10-20T09:17:40.509Z,47.60
2023-10-20T09:18:45.676Z,47.60
2023-10-20T09:19:49.480Z,47.57
2023-10-20T09:20:53.169Z,47.54
2023-10-20T09:21:58.939Z,47.52
2023-10-20T09:23:10.251Z,47.49
2023-10-20T09:24:17.128Z,47.50
2023-10-20T09:25:20.854Z,47.49
2023-10-20T09:26:25.169Z,47.47
2023-10-20T09:27:29.002Z,47.44
2023-10-20T09:28:32.972Z,47.51
2023-10-20T09:29:38.508Z,47.54
2023-10-20T09:30:44.283Z,47.54
2023-10-20T09:31:48.148Z,47.52
2023-10-20T09:32:52.079Z,47.48
2023-10-20T09:33:56.027Z,47.48
2023-10-20T09:35:00.099Z,47.48
2023-10-20T09:36:04.351Z,47.45
2023-10-20T09:37:10.512Z,47.43
2023-10-20T09:38:18.211Z,47.38
2023-10-20T09:39:26.367Z,47.32
2023-10-20T09:40:30.095Z,47.19
2023-10-20T09:41:35.112Z,47.37
2023-10-20T09:43:07.787Z,47.41
2023-10-20T09:44:23.639Z,47.30
2023-10-20T09:45:33.625Z,47.04
2023-10-20T09:46:52.022Z,47.27
2023-10-20T09:48:02.555Z,47.16
2023-10-20T09:49:15.930Z,47.10
2023-10-20T09:50:20.675Z,47.23
2023-10-20T09:51:25.096Z,47.22
2023-10-20T09:52:30.343Z,47.20
2023-10-20T09:53:34.407Z,47.24
2023-10-20T09:54:38.909Z,47.03
2023-10-20T09:55:43.332Z,47.19
2023-10-20T09:56:48.267Z,47.03
2023-10-20T09:57:52.554Z,47.18
2023-10-20T09:58:59.667Z,47.16
2023-10-20T10:00:06.767Z,47.16
2023-10-20T10:01:14.603Z,47.16
2023-10-20T10:02:28.919Z,47.14
2023-10-20T10:03:33.815Z,47.00
2023-10-20T10:04:41.407Z,46.96
2023-10-20T10:05:48.721Z,46.89
2023-10-20T10:06:53.524Z,46.92
2023-10-20T10:08:08.910Z,46.90
2023-10-20T10:09:12.652Z,46.78
2023-10-20T10:10:21.876Z,46.94
2023-10-20T10:11:30.806Z,46.97
2023-10-20T10:12:34.623Z,46.94
2023-10-20T10:13:42.659Z,46.92
2023-10-20T10:14:57.364Z,46.82
2023-10-20T10:16:12.308Z,47.03
2023-10-20T10:17:22.066Z,46.92
2023-10-20T10:18:33.134Z,46.90
2023-10-20T10:19:36.843Z,46.89
2023-10-20T10:20:45.679Z,46.77
2023-10-20T10:21:52.486Z,46.82
2023-10-20T10:23:01.962Z,46.77
2023-10-20T10:24:15.779Z,46.88
2023-10-20T10:25:36.130Z,47.02
2023-10-20T10:26:47.834Z,46.98
2023-10-20T10:27:51.679Z,46.98
2023-10-20T10:28:55.361Z,46.96
2023-10-20T10:30:00.469Z,46.85
2023-10-20T10:31:04.338Z,46.86
2023-10-20T10:32:12.680Z,46.86
2023-10-20T10:33:22.160Z,46.84
2023-10-20T10:34:27.679Z,46.85
2023-10-20T10:35:31.576Z,46.88
2023-10-20T10:36:45.282Z,46.90
2023-10-20T10:37:49.036Z,46.87
2023-10-20T10:38:52.807Z,46.85
2023-10-20T10:40:03.318Z,46.83
2023-10-20T10:41:07.085Z,46.83
2023-10-20T10:42:10.850Z,46.83
2023-10-20T10:43:16.791Z,46.80
2023-10-20T10:44:22.922Z,46.72
2023-10-20T10:45:27.839Z,46.76
2023-10-20T10:46:37.748Z,46.78
2023-10-20T10:47:44.614Z,46.72
2023-10-20T10:48:48.780Z,46.75
2023-10-20T10:49:54.140Z,46.70
2023-10-20T10:50:57.887Z,46.69
2023-10-20T10:52:01.927Z,46.69
2023-10-20T10:53:05.947Z,46.63
2023-10-20T10:54:09.670Z,46.64
2023-10-20T10:55:13.586Z,46.65
2023-10-20T10:56:17.304Z,46.57
2023-10-20T10:57:21.534Z,46.55
2023-10-20T10:58:25.255Z,46.55
2023-10-20T10:59:29.486Z,46.56
2023-10-20T11:00:33.677Z,46.58
2023-10-20T11:01:39.081Z,46.58
2023-10-20T11:02:43.093Z,46.55
2023-10-20T11:03:47.295Z,46.55
2023-10-20T11:04:51.528Z,46.57
2023-10-20T11:05:57.173Z,46.58
2023-10-20T11:07:01.151Z,46.58
2023-10-20T11:08:06.621Z,46.59
2023-10-20T11:09:11.892Z,46.32
2023-10-20T11:10:15.899Z,46.58
2023-10-20T11:11:19.707Z,46.62
2023-10-20T11:12:24.384Z,46.59
2023-10-20T11:13:29.980Z,46.57
2023-10-20T11:14:33.880Z,46.59
2023-10-20T11:15:38.452Z,46.61
2023-10-20T11:16:44.168Z,46.59
2023-10-20T11:17:49.939Z,46.57
2023-10-20T11:18:53.839Z,46.58
2023-10-20T11:19:58.927Z,46.58
2023-10-20T11:21:04.458Z,46.52
2023-10-20T11:22:16.365Z,46.30
2023-10-20T11:23:30.542Z,46.41
2023-10-20T11:24:37.491Z,46.53
2023-10-20T11:25:42.013Z,46.53
2023-10-20T11:26:55.512Z,46.50
2023-10-20T11:27:59.366Z,46.51
2023-10-20T11:29:04.084Z,46.48
2023-10-20T11:30:10.090Z,46.50
2023-10-20T11:31:14.123Z,46.43
2023-10-20T11:32:18.002Z,46.40
2023-10-20T11:33:21.831Z,46.25
2023-10-20T11:34:25.877Z,46.37
2023-10-20T11:35:29.964Z,46.36
2023-10-20T11:36:35.414Z,46.38
2023-10-20T11:37:39.149Z,46.42
2023-10-20T11:38:42.924Z,46.43
2023-10-20T11:39:46.745Z,46.43
2023-10-20T11:40:51.234Z,46.45
2023-10-20T11:41:55.710Z,46.43
2023-10-20T11:42:59.500Z,46.46
2023-10-20T11:44:03.337Z,46.45
2023-10-20T11:45:08.112Z,46.41
2023-10-20T11:46:11.906Z,46.42
2023-10-20T11:47:15.713Z,46.42
2023-10-20T11:48:19.571Z,46.41
2023-10-20T11:49:23.789Z,46.29
2023-10-20T11:50:27.605Z,46.42
2023-10-20T11:51:31.474Z,46.42
2023-10-20T11:52:37.276Z,46.42
2023-10-20T11:53:41.071Z,46.39
2023-10-20T11:54:44.870Z,46.38
2023-10-20T11:55:48.664Z,46.38
2023-10-20T11:56:52.529Z,46.38
2023-10-20T11:57:56.413Z,46.37
2023-10-20T11:59:00.296Z,46.33
2023-10-20T12:00:04.419Z,46.30
2023-10-20T12:01:08.208Z,46.32
2023-10-20T12:02:12.242Z,46.34
2023-10-20T12:03:16.217Z,46.34
2023-10-20T12:04:20.465Z,46.29
2023-10-20T12:05:24.337Z,46.32
2023-10-20T12:06:28.576Z,46.31
2023-10-20T12:07:32.370Z,46.10
2023-10-20T12:08:37.857Z,46.31
2023-10-20T12:09:41.756Z,46.30
2023-10-20T12:10:45.466Z,46.24
2023-10-20T12:11:49.720Z,46.27
2023-10-20T12:12:53.552Z,46.25
2023-10-20T12:13:57.265Z,46.26
2023-10-20T12:15:01.015Z,46.26
2023-10-20T12:16:04.869Z,46.25
2023-10-20T12:17:08.601Z,46.22
2023-10-20T12:18:12.463Z,46.20
2023-10-20T12:19:16.282Z,46.19
2023-10-20T12:20:20.137Z,46.16
2023-10-20T12:21:23.972Z,46.14
2023-10-20T12:22:27.765Z,46.10
2023-10-20T12:23:31.546Z,46.16
2023-10-20T12:24:36.977Z,46.06
2023-10-20T12:25:40.733Z,46.23
2023-10-20T12:26:44.955Z,46.18
2023-10-20T12:27:48.795Z,46.25
2023-10-20T12:28:52.668Z,46.24
2023-10-20T12:29:56.460Z,46.23
2023-10-20T12:31:00.650Z,46.12
2023-10-20T12:32:04.558Z,46.15
2023-10-20T12:33:08.472Z,46.22
2023-10-20T12:34:12.395Z,46.23
2023-10-20T12:35:16.299Z,46.23
2023-10-20T12:36:20.055Z,46.26
2023-10-20T12:37:23.740Z,46.29
2023-10-20T12:38:27.598Z,46.27
2023-10-20T12:39:31.305Z,46.29
2023-10-20T12:40:38.978Z,46.29
2023-10-20T12:41:42.684Z,46.30
2023-10-20T12:42:46.508Z,46.10
2023-10-20T12:43:50.337Z,46.22
2023-10-20T12:44:54.107Z,46.34
2023-10-20T12:45:57.909Z,46.35
2023-10-20T12:47:01.889Z,46.25
2023-10-20T12:48:09.363Z,46.32
2023-10-20T12:49:15.166Z,46.28
2023-10-20T12:50:19.344Z,46.25
2023-10-20T12:51:23.098Z,46.20
2023-10-20T12:52:26.824Z,46.17
2023-10-20T12:53:30.704Z,46.15
2023-10-20T12:54:34.803Z,46.11
2023-10-20T12:55:40.423Z,46.01
2023-10-20T12:56:44.262Z,46.03
2023-10-20T12:57:48.199Z,45.98
2023-10-20T12:58:51.999Z,45.92
2023-10-20T12:59:55.821Z,45.80
2023-10-20T13:01:02.603Z,45.59
2023-10-20T13:02:06.530Z,45.84
2023-10-20T13:03:10.610Z,45.83
2023-10-20T13:04:14.572Z,45.87
2023-10-20T13:05:18.474Z,45.88
2023-10-20T13:06:22.272Z,45.82
2023-10-20T13:07:25.995Z,45.88
2023-10-20T13:08:30.001Z,45.90
2023-10-20T13:09:33.777Z,45.91
2023-10-20T13:10:37.607Z,45.87
2023-10-20T13:11:43.030Z,45.91
2023-10-20T13:12:46.792Z,45.89
2023-10-20T13:13:50.794Z,45.75
2023-10-20T13:14:54.769Z,45.65
2023-10-20T13:15:58.562Z,45.84
2023-10-20T13:17:02.286Z,45.75
2023-10-20T13:18:06.448Z,45.83
2023-10-20T13:19:12.167Z,45.89
2023-10-20T13:20:17.570Z,45.95
2023-10-20T13:21:21.317Z,45.88
2023-10-20T13:23:24.356Z,46.01
2023-10-20T13:24:28.103Z,45.92
2023-10-20T13:25:31.928Z,45.86
2023-10-20T13:26:35.780Z,45.83
2023-10-20T13:27:41.201Z,45.81
2023-10-20T13:28:45.134Z,45.81
2023-10-20T13:29:49.030Z,45.83
2023-10-20T13:31:08.441Z,45.85
2023-10-20T13:32:12.897Z,45.82
2023-10-20T13:33:16.820Z,45.81
2023-10-20T13:34:20.630Z,45.75
2023-10-20T13:35:24.581Z,45.68
2023-10-20T13:36:28.481Z,45.66
2023-10-20T13:37:32.585Z,45.56
2023-10-20T13:38:36.414Z,45.61
2023-10-20T13:39:40.300Z,45.58
2023-10-20T13:40:44.147Z,45.57
2023-10-20T13:41:49.950Z,45.62
2023-10-20T13:42:55.607Z,45.64
2023-10-20T13:43:59.364Z,45.59
2023-10-20T13:45:03.230Z,45.63
2023-10-20T13:46:07.085Z,45.66
2023-10-20T13:47:12.690Z,45.67
2023-10-20T13:48:17.992Z,45.67
2023-10-20T13:49:21.761Z,45.68
2023-10-20T13:50:25.644Z,45.65
2023-10-20T13:51:29.553Z,45.65
2023-10-20T13:52:33.311Z,45.59
2023-10-20T13:53:37.360Z,45.59
2023-10-20T13:54:41.253Z,45.58
2023-10-20T13:55:45.664Z,45.54